Time;durP1;ratioP1;P1;durP2;ratioP2;P2;SDS_P1;SDS_P2;PMS_P1;PMS_P2;Temp;Humidity;BMP_temperature;BMP_pressure;BME280_temperature;BME280_humidity;BME280_pressure;Samples;Min_cycle;Max_cycle;Signal;HPM_P1;HPM_P2
2023/07/02 00:00:19;;;;;;;;;;;;;;;29.47;38.93;93883.91;5047935;28;7155;-60
2023/07/02 00:02:45;;;;;;;;;;;;;;;29.47;39.14;93881.13;5045024;28;7229;-61
2023/07/02 00:05:20;;;;;;;;;;;;;;;29.49;39.40;93882.03;5025229;28;9243;-60
2023/07/02 00:07:46;;;;;;;;;;;;;;;29.47;38.51;93889.44;5041364;28;7237;-60
2023/07/02 00:10:14;;;;;;;;;;;;;;;29.48;38.62;93888.13;5045700;28;7490;-60
2023/07/02 00:12:44;;;;;;;;;;;;;;;29.50;38.26;93885.56;5062237;28;9080;-60
2023/07/02 00:15:11;;;;;;;;;;;;;;;29.49;38.90;93886.84;5046965;28;7668;-60
2023/07/02 00:17:43;;;;;;;;;;;;;;;29.45;38.81;93872.63;5050729;28;7020;-61
2023/07/02 00:20:21;;;;;;;;;;;;;;;29.42;38.98;93882.78;5049319;28;9382;-60
2023/07/02 00:22:48;;;;;;;;;;;;;;;29.42;38.48;93877.22;5050337;28;9031;-60
2023/07/02 00:25:16;;;;;;;;;;;;;;;29.44;39.04;93874.66;5050324;28;8187;-60
2023/07/02 00:27:48;;;;;;;;;;;;;;;29.46;38.28;93876.84;5049392;28;7259;-60
2023/07/02 00:30:27;;;;;;;;;;;;;;;29.42;38.35;93868.91;5067697;28;7172;-60
2023/07/02 00:32:59;;;;;;;;;;;;;;;29.45;38.79;93869.84;5032309;28;9273;-60
2023/07/02 00:35:41;;;;;;;;;;;;;;;29.44;38.96;93866.34;5033641;28;9099;-60
2023/07/02 00:38:07;;;;;;;;;;;;;;;29.43;38.43;93867.63;5026378;28;7259;-60
2023/07/02 00:41:11;;;;;;;;;;;;;;;29.43;39.26;93864.09;5051189;28;7235;-60
2023/07/02 00:43:44;;;;;;;;;;;;;;;29.41;39.04;93863.91;4966154;28;7659;-60
2023/07/02 00:46:22;;;;;;;;;;;;;;;29.43;38.52;93861.31;4983591;28;8081;-60
2023/07/02 00:48:50;;;;;;;;;;;;;;;29.42;38.15;93865.41;4985720;28;7339;-60
2023/07/02 00:51:27;;;;;;;;;;;;;;;29.38;38.54;93859.47;4981752;28;7271;-60
2023/07/02 00:54:04;;;;;;;;;;;;;;;29.37;37.99;93867.03;4972825;28;7016;-60
2023/07/02 00:56:31;;;;;;;;;;;;;;;29.36;39.23;93871.09;4972256;28;7012;-60
2023/07/02 00:58:58;;;;;;;;;;;;;;;29.34;38.61;93859.09;4984687;28;9309;-60
2023/07/02 01:01:28;;;;;;;;;;;;;;;29.32;38.73;93865.16;4964327;28;8971;-60
2023/07/02 01:03:56;;;;;;;;;;;;;;;29.31;38.72;93865.72;4961429;28;7105;-60
2023/07/02 01:06:32;;;;;;;;;;;;;;;29.31;39.23;93865.72;4969876;28;9045;-60
2023/07/02 01:09:07;;;;;;;;;;;;;;;29.32;38.10;93864.44;4987523;28;7268;-60
2023/07/02 01:11:45;;;;;;;;;;;;;;;29.29;39.06;93865.53;4984991;28;8848;-60
2023/07/02 01:14:45;;;;;;;;;;;;;;;29.29;38.89;93869.06;4987598;28;7102;-60
2023/07/02 01:17:39;;;;;;;;;;;;;;;29.31;38.49;93868.50;4950734;28;8781;-60
2023/07/02 01:20:10;;;;;;;;;;;;;;;29.29;38.92;93868.31;4999473;28;7502;-60
2023/07/02 01:22:40;;;;;;;;;;;;;;;29.28;38.28;93861.28;4990307;28;9509;-60
2023/07/02 01:25:08;;;;;;;;;;;;;;;29.27;38.68;93865.34;4988716;28;7138;-60
2023/07/02 01:27:37;;;;;;;;;;;;;;;29.27;38.77;93873.66;4986494;28;8820;-60
2023/07/02 01:30:06;;;;;;;;;;;;;;;29.22;38.63;93864.22;4989319;28;7231;-60
2023/07/02 01:32:43;;;;;;;;;;;;;;;29.24;37.84;93871.97;4992346;28;8688;-60
2023/07/02 01:35:11;;;;;;;;;;;;;;;29.24;38.42;93877.50;4999725;28;7725;-60
2023/07/02 01:37:38;;;;;;;;;;;;;;;29.24;38.93;93894.13;5007915;28;7368;-60
2023/07/02 01:40:08;;;;;;;;;;;;;;;29.24;39.07;93900.41;5009130;28;7004;-60
2023/07/02 01:42:39;;;;;;;;;;;;;;;29.26;39.22;93903.38;5007139;28;7262;-60
2023/07/02 01:45:05;;;;;;;;;;;;;;;29.23;38.82;93904.47;5004862;28;9092;-60
2023/07/02 01:47:33;;;;;;;;;;;;;;;29.24;38.66;93900.41;4988246;28;6995;-60
2023/07/02 01:50:01;;;;;;;;;;;;;;;29.24;38.83;93911.50;4990777;28;7341;-60
2023/07/02 01:52:29;;;;;;;;;;;;;;;29.24;38.17;93910.75;5006098;28;7092;-61
2023/07/02 01:54:55;;;;;;;;;;;;;;;29.23;38.88;93903.75;5022367;28;7179;-61
2023/07/02 01:57:22;;;;;;;;;;;;;;;29.24;38.81;93910.75;5023977;28;7576;-61
2023/07/02 01:59:56;;;;;;;;;;;;;;;29.19;38.95;93911.66;5040380;28;7017;-60
2023/07/02 02:02:30;;;;;;;;;;;;;;;29.22;38.91;93913.31;5064758;28;7396;-61
2023/07/02 02:05:09;;;;;;;;;;;;;;;29.22;38.65;93914.06;5049934;28;8426;-61
2023/07/02 02:07:37;;;;;;;;;;;;;;;29.21;38.61;93917.41;5048801;28;7679;-61
2023/07/02 02:10:06;;;;;;;;;;;;;;;29.23;38.17;93914.81;5028652;28;7270;-61
2023/07/02 02:12:34;;;;;;;;;;;;;;;29.19;38.59;93920.69;5020365;28;7054;-60
2023/07/02 02:15:04;;;;;;;;;;;;;;;29.20;38.31;93926.97;5045553;28;7627;-60
2023/07/02 02:17:29;;;;;;;;;;;;;;;29.18;38.41;93924.75;5045257;28;7245;-61
2023/07/02 02:20:11;;;;;;;;;;;;;;;29.17;38.97;93923.25;5048156;28;7060;-60
2023/07/02 02:22:47;;;;;;;;;;;;;;;29.18;38.69;93930.31;5050679;28;7460;-61
2023/07/02 02:25:32;;;;;;;;;;;;;;;29.20;38.76;93921.44;5050043;28;7210;-60
2023/07/02 02:28:31;;;;;;;;;;;;;;;29.20;38.68;93922.19;5028253;28;7193;-60
2023/07/02 02:30:57;;;;;;;;;;;;;;;29.21;38.43;93931.25;5051372;28;9007;-60
2023/07/02 02:34:12;;;;;;;;;;;;;;;29.21;38.09;93945.09;5053349;28;8728;-61
2023/07/02 02:36:38;;;;;;;;;;;;;;;29.21;38.47;93936.78;5068501;28;9392;-61
2023/07/02 02:39:06;;;;;;;;;;;;;;;29.20;37.97;93949.13;5052686;28;7026;-60
2023/07/02 02:41:36;;;;;;;;;;;;;;;29.19;38.90;93947.66;5069752;28;7511;-61
2023/07/02 02:44:01;;;;;;;;;;;;;;;29.15;38.43;93941.69;5053514;28;9034;-60
2023/07/02 02:46:35;;;;;;;;;;;;;;;29.15;38.19;93941.69;5053235;28;9450;-61
2023/07/02 02:49:01;;;;;;;;;;;;;;;29.14;38.50;93938.19;5052578;28;9264;-60
2023/07/02 02:51:27;;;;;;;;;;;;;;;29.15;38.95;93945.19;5053012;28;7458;-60
2023/07/02 02:54:01;;;;;;;;;;;;;;;29.12;38.54;93949.06;5029189;28;8572;-60
2023/07/02 02:56:42;;;;;;;;;;;;;;;29.14;38.94;93940.97;5052381;28;7051;-60
2023/07/02 02:59:12;;;;;;;;;;;;;;;29.16;38.28;93943.97;5030303;28;7011;-60
2023/07/02 03:01:52;;;;;;;;;;;;;;;29.18;38.42;93949.69;5051791;28;7249;-60
2023/07/02 03:04:51;;;;;;;;;;;;;;;29.20;38.76;93954.69;5053824;28;6990;-60
2023/07/02 03:07:25;;;;;;;;;;;;;;;29.20;39.02;93954.69;4990146;28;8909;-60
2023/07/02 03:09:51;;;;;;;;;;;;;;;29.21;37.92;93950.63;4984357;28;7216;-61
2023/07/02 03:12:19;;;;;;;;;;;;;;;29.21;38.68;93954.13;4998784;28;8451;-60
2023/07/02 03:14:54;;;;;;;;;;;;;;;29.23;38.18;93959.13;5001863;28;7182;-60
2023/07/02 03:17:20;;;;;;;;;;;;;;;29.23;37.66;93953.59;5016283;28;7267;-61
2023/07/02 03:19:57;;;;;;;;;;;;;;;29.23;38.10;93959.13;4990090;28;7085;-61
2023/07/02 03:22:23;;;;;;;;;;;;;;;29.22;38.38;93957.63;4992266;28;7199;-61
2023/07/02 03:24:51;;;;;;;;;;;;;;;29.24;38.53;93955.06;5000660;28;7182;-60
2023/07/02 03:27:31;;;;;;;;;;;;;;;29.23;38.29;93959.13;5003916;28;7143;-61
2023/07/02 03:30:35;;;;;;;;;;;;;;;29.22;38.67;93955.63;4996585;28;7780;-60
2023/07/02 03:33:32;;;;;;;;;;;;;;;29.22;37.80;93954.88;4972368;28;9865;-61
2023/07/02 03:36:02;;;;;;;;;;;;;;;29.22;38.75;93952.84;4893257;29;7243;-61
2023/07/02 03:38:59;;;;;;;;;;;;;;;29.24;38.71;93960.59;4879157;29;9090;-61
2023/07/02 03:41:44;;;;;;;;;;;;;;;29.25;37.83;93965.63;4895567;29;7044;-61
2023/07/02 03:44:23;;;;;;;;;;;;;;;29.22;37.93;93968.72;4899111;29;7764;-61
2023/07/02 03:46:53;;;;;;;;;;;;;;;29.21;38.04;93970.03;4914681;29;7406;-61
2023/07/02 03:49:21;;;;;;;;;;;;;;;29.20;37.63;93974.06;4931868;29;9068;-60
2023/07/02 03:51:47;;;;;;;;;;;;;;;29.20;38.34;93976.84;4895539;29;9221;-61
2023/07/02 03:54:22;;;;;;;;;;;;;;;29.20;38.36;93976.84;4931564;29;9128;-60
2023/07/02 03:56:58;;;;;;;;;;;;;;;29.21;38.43;93981.09;4915640;29;9079;-61
2023/07/02 03:59:25;;;;;;;;;;;;;;;29.20;38.40;93987.91;4915379;29;7161;-61
2023/07/02 04:02:04;;;;;;;;;;;;;;;29.19;37.96;93981.63;4916787;29;7642;-60
2023/07/02 04:04:30;;;;;;;;;;;;;;;29.19;37.57;93986.44;4929532;28;7089;-60
2023/07/02 04:07:11;;;;;;;;;;;;;;;29.18;37.98;93985.69;4953529;28;9180;-60
2023/07/02 04:09:37;;;;;;;;;;;;;;;29.20;38.10;93985.13;4969206;28;7217;-60
2023/07/02 04:12:12;;;;;;;;;;;;;;;29.19;37.43;93991.97;4973682;28;9321;-61
2023/07/02 04:14:42;;;;;;;;;;;;;;;29.17;37.88;93986.25;5035187;28;7333;-61
2023/07/02 04:17:11;;;;;;;;;;;;;;;29.15;38.27;93988.75;5050181;28;6983;-61
2023/07/02 04:19:37;;;;;;;;;;;;;;;29.14;37.44;93985.28;5023849;28;7240;-61
2023/07/02 04:22:03;;;;;;;;;;;;;;;29.15;38.20;93986.00;5047540;28;7617;-60
2023/07/02 04:24:29;;;;;;;;;;;;;;;29.16;38.08;93999.34;5023685;28;7356;-61
2023/07/02 04:27:00;;;;;;;;;;;;;;;29.16;37.93;93993.81;5044959;28;7280;-60
2023/07/02 04:29:28;;;;;;;;;;;;;;;29.17;37.95;93997.31;5039492;28;6979;-60
2023/07/02 04:31:56;;;;;;;;;;;;;;;29.17;38.36;93991.78;5027639;28;9163;-61
2023/07/02 04:34:26;;;;;;;;;;;;;;;29.14;38.23;94001.16;5050809;28;7199;-61
2023/07/02 04:37:09;;;;;;;;;;;;;;;29.15;37.64;94000.59;5052068;28;6986;-61
2023/07/02 04:39:44;;;;;;;;;;;;;;;29.18;37.99;94001.56;5025483;28;7723;-61
2023/07/02 04:42:31;;;;;;;;;;;;;;;29.17;37.72;93992.50;5051612;28;9546;-60
2023/07/02 04:45:02;;;;;;;;;;;;;;;29.16;37.60;93996.56;5051599;28;7295;-61
2023/07/02 04:47:42;;;;;;;;;;;;;;;29.18;38.51;93987.72;5051888;28;9283;-61
2023/07/02 04:50:26;;;;;;;;;;;;;;;29.14;38.42;94003.91;5052250;28;7143;-61
2023/07/02 04:53:19;;;;;;;;;;;;;;;29.17;37.80;94000.09;5068475;28;9227;-60
2023/07/02 04:55:59;;;;;;;;;;;;;;;29.15;38.44;93997.06;5048737;28;7162;-60
2023/07/02 04:58:38;;;;;;;;;;;;;;;29.13;38.54;94000.41;5052516;28;9351;-60
2023/07/02 05:01:05;;;;;;;;;;;;;;;29.13;38.07;94002.41;5014906;28;8739;-60
2023/07/02 05:03:32;;;;;;;;;;;;;;;29.13;38.21;94010.72;5034278;28;6997;-60
2023/07/02 05:06:05;;;;;;;;;;;;;;;29.11;37.73;94000.19;5050274;28;9202;-61
2023/07/02 05:08:37;;;;;;;;;;;;;;;29.14;38.35;94010.19;5051081;28;7363;-61
2023/07/02 05:11:28;;;;;;;;;;;;;;;29.14;37.98;94010.19;5049151;28;9061;-61
2023/07/02 05:14:30;;;;;;;;;;;;;;;29.16;37.48;94009.66;5050482;28;7211;-61
2023/07/02 05:17:05;;;;;;;;;;;;;;;29.16;37.85;94009.66;4990330;28;6974;-61
2023/07/02 05:19:44;;;;;;;;;;;;;;;29.15;37.96;94008.91;4989651;28;7758;-61
2023/07/02 05:22:18;;;;;;;;;;;;;;;29.13;37.96;94005.94;4989666;28;9088;-61
2023/07/02 05:24:49;;;;;;;;;;;;;;;29.14;38.04;94007.44;4975068;28;9256;-61
2023/07/02 05:27:31;;;;;;;;;;;;;;;29.13;37.60;94019.78;4991751;28;7941;-61
2023/07/02 05:30:27;;;;;;;;;;;;;;;29.13;38.21;94013.50;4974454;28;8828;-61
2023/07/02 05:33:33;;;;;;;;;;;;;;;29.12;38.55;94021.09;4937242;28;7124;-61
2023/07/02 05:36:14;;;;;;;;;;;;;;;29.12;37.76;94025.88;4857746;29;9388;-61
2023/07/02 05:38:40;;;;;;;;;;;;;;;29.08;37.87;94021.41;4859364;29;7284;-61
2023/07/02 05:41:34;;;;;;;;;;;;;;;29.12;38.09;94025.88;4858354;29;9184;-61
2023/07/02 05:44:04;;;;;;;;;;;;;;;29.12;38.13;94031.41;4839846;29;7183;-61
2023/07/02 05:46:39;;;;;;;;;;;;;;;29.11;37.62;94025.13;4858264;29;8897;-61
2023/07/02 05:49:06;;;;;;;;;;;;;;;29.12;38.61;94025.88;4842433;29;8744;-61
2023/07/02 05:51:43;;;;;;;;;;;;;;;29.13;38.61;94030.13;4875024;29;7024;-61
2023/07/02 05:54:30;;;;;;;;;;;;;;;29.14;38.82;94029.59;4895408;29;7672;-61
2023/07/02 05:56:56;;;;;;;;;;;;;;;29.13;37.64;94030.88;4892235;29;9245;-61
2023/07/02 05:59:22;;;;;;;;;;;;;;;29.12;38.21;94023.09;4890611;29;9013;-61
2023/07/02 06:01:47;;;;;;;;;;;;;;;29.11;37.94;94030.66;4888751;29;8863;-61
2023/07/02 06:04:16;;;;;;;;;;;;;;;29.13;38.19;94038.41;4888995;29;7345;-61
2023/07/02 06:06:42;;;;;;;;;;;;;;;29.15;38.30;94039.38;4935045;28;9285;-61
2023/07/02 06:09:08;;;;;;;;;;;;;;;29.15;38.47;94038.63;4994569;28;10372;-61
2023/07/02 06:11:34;;;;;;;;;;;;;;;29.17;37.98;94038.88;5047429;28;9244;-61
2023/07/02 06:14:00;;;;;;;;;;;;;;;29.14;38.67;94039.91;5048978;28;9056;-61
2023/07/02 06:16:27;;;;;;;;;;;;;;;29.13;38.76;94041.94;5049687;28;7240;-61
2023/07/02 06:18:53;;;;;;;;;;;;;;;29.13;38.29;94047.47;5026100;28;9116;-62
2023/07/02 06:21:20;;;;;;;;;;;;;;;29.11;37.81;94050.06;5047825;28;9297;-61
2023/07/02 06:23:53;;;;;;;;;;;;;;;29.12;38.03;94056.34;5024844;28;7080;-62
2023/07/02 06:26:22;;;;;;;;;;;;;;;29.12;38.32;94054.31;5049312;28;7367;-62
2023/07/02 06:28:54;;;;;;;;;;;;;;;29.13;38.36;94055.03;5049544;28;7111;-61
2023/07/02 06:31:54;;;;;;;;;;;;;;;29.10;38.08;94062.44;5052650;28;8304;-62
2023/07/02 06:34:39;;;;;;;;;;;;;;;29.09;38.39;94067.22;4973938;28;7138;-62
2023/07/02 06:37:34;;;;;;;;;;;;;;;29.09;39.38;94066.47;4955947;28;7053;-61
2023/07/02 06:40:00;;;;;;;;;;;;;;;29.08;38.29;94071.25;4933405;28;7068;-61
2023/07/02 06:42:42;;;;;;;;;;;;;;;29.10;38.62;94067.97;4920489;29;7395;-61
2023/07/02 06:45:07;;;;;;;;;;;;;;;29.08;38.53;94071.25;4937113;28;7059;-61
2023/07/02 06:47:47;;;;;;;;;;;;;;;29.13;38.99;94083.47;4935430;28;6968;-61
2023/07/02 06:50:25;;;;;;;;;;;;;;;29.11;38.08;94077.75;4934735;28;7267;-60
2023/07/02 06:52:51;;;;;;;;;;;;;;;29.15;39.16;94075.38;4935679;28;7320;-61
2023/07/02 06:55:30;;;;;;;;;;;;;;;29.13;38.93;94072.41;4919336;29;9111;-60
2023/07/02 06:57:58;;;;;;;;;;;;;;;29.14;39.21;94079.44;4919446;28;7200;-60
2023/07/02 07:00:25;;;;;;;;;;;;;;;29.16;38.45;94081.66;4932884;28;6975;-61
2023/07/02 07:02:51;;;;;;;;;;;;;;;29.14;38.77;94081.47;4930470;29;7229;-61
2023/07/02 07:05:17;;;;;;;;;;;;;;;29.15;38.49;94080.16;4929610;29;7125;-61
2023/07/02 07:07:45;;;;;;;;;;;;;;;29.15;38.43;94080.91;4926461;29;9124;-60
2023/07/02 07:10:11;;;;;;;;;;;;;;;29.14;38.46;94073.91;4962328;28;7396;-61
2023/07/02 07:12:37;;;;;;;;;;;;;;;29.17;38.71;94083.19;4968384;28;6980;-61
2023/07/02 07:15:10;;;;;;;;;;;;;;;29.10;38.54;94074.22;4970465;28;9009;-61
2023/07/02 07:17:41;;;;;;;;;;;;;;;29.15;38.99;94075.38;5049018;28;6961;-61
2023/07/02 07:20:19;;;;;;;;;;;;;;;29.12;38.93;94078.50;5066556;28;7148;-61
2023/07/02 07:22:59;;;;;;;;;;;;;;;29.14;38.67;94076.66;5031457;28;7277;-61
2023/07/02 07:25:25;;;;;;;;;;;;;;;29.17;38.65;94078.38;5029113;28;8745;-61
2023/07/02 07:27:52;;;;;;;;;;;;;;;29.19;38.84;94083.38;5048423;28;7641;-61
2023/07/02 07:30:26;;;;;;;;;;;;;;;29.17;38.95;94081.13;5024466;28;7429;-61
2023/07/02 07:32:52;;;;;;;;;;;;;;;29.16;38.90;94081.66;5048438;28;7237;-61
2023/07/02 07:35:28;;;;;;;;;;;;;;;29.14;38.23;94075.91;5052744;28;8183;-61
2023/07/02 07:37:58;;;;;;;;;;;;;;;29.17;38.65;94080.41;5052483;28;7240;-61
2023/07/02 07:40:27;;;;;;;;;;;;;;;29.17;38.37;94080.41;5066627;28;7046;-61
2023/07/02 07:42:59;;;;;;;;;;;;;;;29.16;38.26;94081.66;5069510;28;7271;-61
2023/07/02 07:45:35;;;;;;;;;;;;;;;29.17;38.04;94085.97;5053545;28;9429;-61
2023/07/02 07:48:05;;;;;;;;;;;;;;;29.16;38.53;94087.19;5052969;28;9265;-61
2023/07/02 07:50:32;;;;;;;;;;;;;;;29.18;38.37;94081.88;5031842;28;9402;-61
2023/07/02 07:52:58;;;;;;;;;;;;;;;29.18;38.06;94084.66;5049786;28;7271;-61
2023/07/02 07:55:26;;;;;;;;;;;;;;;29.16;38.57;94076.91;5024957;28;7279;-61
2023/07/02 07:57:57;;;;;;;;;;;;;;;29.16;38.65;94073.34;5024560;28;7270;-61
2023/07/02 08:00:24;;;;;;;;;;;;;;;29.18;38.47;94084.66;5048320;28;7376;-61
2023/07/02 08:03:02;;;;;;;;;;;;;;;29.16;38.53;94078.88;5049674;28;7375;-61
2023/07/02 08:05:29;;;;;;;;;;;;;;;29.10;37.93;94074.22;5052365;28;7357;-61
2023/07/02 08:07:58;;;;;;;;;;;;;;;29.16;38.22;94081.66;5051084;28;9092;-61
2023/07/02 08:10:38;;;;;;;;;;;;;;;29.14;38.97;94073.16;5054243;28;7233;-61
2023/07/02 08:13:05;;;;;;;;;;;;;;;29.16;38.06;94076.91;5029447;28;7147;-61
2023/07/02 08:15:39;;;;;;;;;;;;;;;29.16;38.89;94071.34;5051659;28;9142;-61
2023/07/02 08:18:27;;;;;;;;;;;;;;;29.15;38.06;94071.84;5027464;28;6999;-61
2023/07/02 08:21:05;;;;;;;;;;;;;;;29.13;38.36;94071.66;5032823;28;9140;-61
2023/07/02 08:23:45;;;;;;;;;;;;;;;29.16;38.07;94076.13;5048883;28;9903;-61
2023/07/02 08:26:14;;;;;;;;;;;;;;;29.16;38.36;94079.66;5034870;28;7013;-61
2023/07/02 08:28:50;;;;;;;;;;;;;;;29.16;37.83;94081.66;5049193;28;9358;-61
2023/07/02 08:31:40;;;;;;;;;;;;;;;29.15;37.90;94080.16;5065467;28;7033;-61
2023/07/02 08:34:06;;;;;;;;;;;;;;;29.14;37.98;94084.97;5025915;28;7801;-61
2023/07/02 08:37:00;;;;;;;;;;;;;;;29.14;38.38;94087.00;5025397;28;6987;-61
2023/07/02 08:39:53;;;;;;;;;;;;;;;29.10;38.75;94090.84;5051127;28;7273;-61
2023/07/02 08:42:19;;;;;;;;;;;;;;;29.09;38.52;94083.84;5030142;28;7159;-61
2023/07/02 08:44:47;;;;;;;;;;;;;;;29.12;38.20;94092.34;5052237;28;7539;-61
2023/07/02 08:47:16;;;;;;;;;;;;;;;29.09;37.87;94088.63;5049127;28;7291;-61
2023/07/02 08:49:53;;;;;;;;;;;;;;;29.06;37.93;94092.47;5026891;28;6928;-61
2023/07/02 08:52:22;;;;;;;;;;;;;;;29.12;38.68;94095.09;5046579;28;7287;-61
2023/07/02 08:54:49;;;;;;;;;;;;;;;29.14;38.83;94100.84;5065268;28;8935;-61
2023/07/02 08:57:16;;;;;;;;;;;;;;;29.13;38.23;94093.81;5029442;28;7219;-61
2023/07/02 08:59:54;;;;;;;;;;;;;;;29.10;38.79;94096.38;5067836;28;8361;-61
2023/07/02 09:02:41;;;;;;;;;;;;;;;29.09;38.72;94094.91;5066470;28;9083;-61
2023/07/02 09:05:25;;;;;;;;;;;;;;;29.06;38.20;94098.75;5050162;28;9178;-61
2023/07/02 09:07:52;;;;;;;;;;;;;;;29.12;38.45;94101.41;5065613;28;7253;-61
2023/07/02 09:14:42;;;;;;;;;;;;;;;29.12;38.76;94104.16;4964081;28;9157;-61
2023/07/02 09:17:13;;;;;;;;;;;;;;;29.10;38.10;94101.19;4967325;28;7279;-61
2023/07/02 09:19:52;;;;;;;;;;;;;;;29.12;38.54;94100.66;4948718;28;7327;-61
2023/07/02 09:22:41;;;;;;;;;;;;;;;29.13;38.72;94096.56;4970329;28;7003;-61
2023/07/02 09:25:21;;;;;;;;;;;;;;;29.12;38.86;94095.09;4953751;28;7234;-61
2023/07/02 09:28:26;;;;;;;;;;;;;;;29.09;37.91;94100.44;4954028;28;7411;-61
2023/07/02 09:30:56;;;;;;;;;;;;;;;29.12;37.80;94097.88;4951500;28;7333;-61
2023/07/02 09:34:00;;;;;;;;;;;;;;;29.10;38.60;94098.44;4954727;28;8787;-61
2023/07/02 09:36:53;;;;;;;;;;;;;;;29.10;38.48;94103.97;4922624;29;9379;-61
2023/07/02 09:39:31;;;;;;;;;;;;;;;29.10;38.18;94096.38;4898356;29;7009;-61
2023/07/02 09:42:19;;;;;;;;;;;;;;;29.12;38.28;94097.88;4906672;29;6981;-61
2023/07/02 09:45:07;;;;;;;;;;;;;;;29.13;38.72;94094.56;4906834;29;9087;-61
2023/07/02 09:47:59;;;;;;;;;;;;;;;29.12;38.28;94095.09;4921292;29;8580;-61
2023/07/02 09:51:08;;;;;;;;;;;;;;;29.12;38.65;94087.56;4912470;28;7412;-61
2023/07/02 09:53:36;;;;;;;;;;;;;;;29.15;38.13;94091.25;4960100;28;7239;-61
2023/07/02 09:56:45;;;;;;;;;;;;;;;29.13;38.37;94096.56;4960967;28;9715;-61
2023/07/02 09:59:22;;;;;;;;;;;;;;;29.10;38.09;94093.63;4977855;28;7115;-61
2023/07/02 10:01:48;;;;;;;;;;;;;;;29.10;38.32;94090.84;4953367;28;9475;-62
2023/07/02 10:04:20;;;;;;;;;;;;;;;29.13;38.24;94093.81;4952328;28;8815;-61
2023/07/02 10:06:50;;;;;;;;;;;;;;;29.13;38.38;94091.78;4956636;28;9075;-62
2023/07/02 10:09:20;;;;;;;;;;;;;;;29.13;38.67;94094.56;4971205;28;8700;-61
2023/07/02 10:11:46;;;;;;;;;;;;;;;29.12;38.07;94097.88;4965621;28;7565;-61
2023/07/02 10:14:13;;;;;;;;;;;;;;;29.14;37.83;94098.06;5037729;28;6990;-61
2023/07/02 10:16:57;;;;;;;;;;;;;;;29.13;38.55;94102.88;5045933;28;9137;-61
2023/07/02 10:19:33;;;;;;;;;;;;;;;29.14;37.92;94103.63;5034889;28;8739;-61
2023/07/02 10:22:26;;;;;;;;;;;;;;;29.13;37.77;94099.34;5050695;28;7211;-61
2023/07/02 10:25:03;;;;;;;;;;;;;;;29.09;37.99;94097.69;5027967;28;7423;-61
2023/07/02 10:27:46;;;;;;;;;;;;;;;29.12;37.99;94103.41;5050606;28;7220;-61
2023/07/02 10:30:38;;;;;;;;;;;;;;;29.10;38.86;94107.47;5026622;28;9032;-61
2023/07/02 10:33:11;;;;;;;;;;;;;;;29.09;38.74;94099.69;5023530;28;9053;-61
2023/07/02 10:35:39;;;;;;;;;;;;;;;29.09;38.75;94100.44;5022161;28;7217;-61
2023/07/02 10:38:06;;;;;;;;;;;;;;;29.10;37.88;94103.97;5021475;28;9126;-61
2023/07/02 10:40:33;;;;;;;;;;;;;;;29.09;38.31;94100.44;5046300;28;7075;-61
2023/07/02 10:43:00;;;;;;;;;;;;;;;29.08;38.56;94104.50;5045702;28;7048;-61
2023/07/02 10:45:34;;;;;;;;;;;;;;;29.10;38.00;94107.47;5047060;28;8250;-61
2023/07/02 10:48:15;;;;;;;;;;;;;;;29.10;38.32;94101.19;5025309;28;9095;-61
2023/07/02 10:50:51;;;;;;;;;;;;;;;29.10;37.79;94101.91;5050365;28;9072;-61
2023/07/02 10:53:19;;;;;;;;;;;;;;;29.15;38.75;94105.84;5048971;28;9186;-61
2023/07/02 10:55:55;;;;;;;;;;;;;;;29.17;38.49;94108.13;5033661;28;6891;-62
2023/07/02 10:58:23;;;;;;;;;;;;;;;29.15;37.60;94103.06;5064622;28;8792;-61
2023/07/02 11:00:52;;;;;;;;;;;;;;;29.16;38.50;94109.34;5064269;28;9251;-61
2023/07/02 11:03:22;;;;;;;;;;;;;;;29.19;38.17;94102.78;5025980;28;7239;-61
2023/07/02 11:05:50;;;;;;;;;;;;;;;29.20;38.01;94099.44;5049779;28;8747;-62
2023/07/02 11:08:17;;;;;;;;;;;;;;;29.21;37.53;94100.19;5046153;28;9447;-61
2023/07/02 11:10:44;;;;;;;;;;;;;;;29.21;38.15;94094.66;5024601;28;7290;-62
2023/07/02 11:13:19;;;;;;;;;;;;;;;29.23;38.20;94097.63;5025540;28;7253;-62
2023/07/02 11:15:46;;;;;;;;;;;;;;;29.22;37.95;94087.81;5048033;28;7233;-62
2023/07/02 11:18:20;;;;;;;;;;;;;;;29.21;37.86;94089.84;5049185;28;8157;-62
2023/07/02 11:20:49;;;;;;;;;;;;;;;29.21;38.49;94089.84;5024908;28;9280;-61
2023/07/02 11:23:18;;;;;;;;;;;;;;;29.23;38.02;94081.00;5049072;28;9054;-62
2023/07/02 11:26:04;;;;;;;;;;;;;;;29.22;37.47;94085.06;5064875;28;7426;-61
2023/07/02 11:28:34;;;;;;;;;;;;;;;29.24;38.93;94088.03;5024604;28;7087;-61
2023/07/02 11:31:07;;;;;;;;;;;;;;;29.21;38.10;94083.59;5052613;28;7004;-62
2023/07/02 11:33:38;;;;;;;;;;;;;;;29.23;37.86;94081.72;5038947;28;7229;-62
2023/07/02 11:36:20;;;;;;;;;;;;;;;29.26;38.82;94083.44;5053991;28;7000;-61
2023/07/02 11:38:56;;;;;;;;;;;;;;;29.28;37.79;94074.56;5052386;28;9191;-62
2023/07/02 11:41:22;;;;;;;;;;;;;;;29.29;38.03;94078.84;5068427;28;7335;-62
2023/07/02 11:44:00;;;;;;;;;;;;;;;29.26;38.58;94069.56;5025191;28;9023;-62
2023/07/02 11:47:00;;;;;;;;;;;;;;;29.30;38.12;94069.22;5052550;28;9393;-61
2023/07/02 11:49:32;;;;;;;;;;;;;;;29.25;37.96;94065.34;4991840;28;9156;-62
2023/07/02 11:51:58;;;;;;;;;;;;;;;29.25;38.53;94062.56;4986343;28;9011;-62
2023/07/02 11:54:54;;;;;;;;;;;;;;;29.27;39.03;94070.31;4969013;28;7199;-62
2023/07/02 11:57:21;;;;;;;;;;;;;;;29.27;38.29;94073.09;4986643;28;7757;-62
2023/07/02 11:59:59;;;;;;;;;;;;;;;29.25;38.51;94059.06;4986643;28;9059;-62
2023/07/02 12:02:28;;;;;;;;;;;;;;;29.26;38.12;94063.28;4987362;28;7081;-61
2023/07/02 12:05:05;;;;;;;;;;;;;;;29.29;38.60;94065.00;4976357;28;8912;-62
2023/07/02 12:07:51;;;;;;;;;;;;;;;29.29;37.82;94065.00;4966127;28;9477;-62
2023/07/02 12:10:36;;;;;;;;;;;;;;;29.28;38.30;94055.94;4991754;28;9594;-61
2023/07/02 12:13:03;;;;;;;;;;;;;;;29.28;38.29;94064.25;4991537;28;7391;-62
2023/07/02 12:15:29;;;;;;;;;;;;;;;29.26;38.07;94064.03;4984934;28;7473;-62
2023/07/02 12:18:14;;;;;;;;;;;;;;;29.29;38.67;94062.97;4973109;28;7387;-61
2023/07/02 12:20:40;;;;;;;;;;;;;;;29.29;38.05;94070.53;4974309;28;9076;-62
2023/07/02 12:23:10;;;;;;;;;;;;;;;29.29;39.12;94062.22;4973740;28;6962;-62
2023/07/02 12:25:36;;;;;;;;;;;;;;;29.28;39.32;94058.69;5010828;28;7196;-61
2023/07/02 12:28:08;;;;;;;;;;;;;;;29.30;38.18;94061.66;5023421;28;7312;-62
2023/07/02 12:30:37;;;;;;;;;;;;;;;29.33;39.22;94057.06;5024941;28;9128;-62
2023/07/02 12:33:04;;;;;;;;;;;;;;;29.33;39.24;94057.06;5048497;28;8977;-62
2023/07/02 12:35:38;;;;;;;;;;;;;;;29.36;38.31;94061.53;5050100;28;9416;-62
2023/07/02 12:38:09;;;;;;;;;;;;;;;29.37;38.96;94058.22;5048727;28;9161;-62
2023/07/02 12:40:35;;;;;;;;;;;;;;;29.39;38.82;94054.88;5027226;28;7441;-61
2023/07/02 12:43:26;;;;;;;;;;;;;;;29.39;37.77;94057.66;5049211;28;7171;-62
2023/07/02 12:45:57;;;;;;;;;;;;;;;29.38;38.70;94053.41;5050998;28;7035;-62
2023/07/02 12:48:42;;;;;;;;;;;;;;;29.37;38.14;94055.44;5066477;28;7248;-62
2023/07/02 12:51:12;;;;;;;;;;;;;;;29.39;38.09;94052.88;5048010;28;9159;-62
2023/07/02 12:53:40;;;;;;;;;;;;;;;29.38;38.78;94054.16;5050834;28;7207;-62
2023/07/02 12:56:06;;;;;;;;;;;;;;;29.40;38.00;94048.06;5049824;28;7131;-61
2023/07/02 12:58:41;;;;;;;;;;;;;;;29.39;38.28;94044.56;5052117;28;8584;-61
2023/07/02 13:01:13;;;;;;;;;;;;;;;29.43;39.04;94044.19;5048106;28;7384;-62
2023/07/02 13:03:47;;;;;;;;;;;;;;;29.43;38.04;94035.88;5061307;28;9406;-62
2023/07/02 13:06:15;;;;;;;;;;;;;;;29.46;37.99;94043.13;5033445;28;8576;-62
2023/07/02 13:08:42;;;;;;;;;;;;;;;29.46;38.25;94043.13;5050155;28;7284;-62
2023/07/02 13:11:16;;;;;;;;;;;;;;;29.47;38.71;94039.06;5025238;28;7018;-62
2023/07/02 13:13:42;;;;;;;;;;;;;;;29.49;38.13;94042.03;5049972;28;8731;-62
2023/07/02 13:16:17;;;;;;;;;;;;;;;29.47;39.32;94037.03;5031751;28;9345;-62
2023/07/02 13:18:45;;;;;;;;;;;;;;;29.45;38.86;94044.41;5065048;28;9078;-62
2023/07/02 13:21:11;;;;;;;;;;;;;;;29.47;38.46;94041.84;5045120;28;7145;-62
2023/07/02 13:23:38;;;;;;;;;;;;;;;29.48;39.13;94032.22;5048873;28;7488;-62
2023/07/02 13:26:04;;;;;;;;;;;;;;;29.49;39.25;94033.72;5025260;28;7088;-62
2023/07/02 13:28:32;;;;;;;;;;;;;;;29.49;38.56;94030.94;5024823;28;9377;-61
2023/07/02 13:31:00;;;;;;;;;;;;;;;29.50;38.32;94032.41;5023744;28;6927;-62
2023/07/02 13:33:30;;;;;;;;;;;;;;;29.50;39.49;94033.16;5032380;28;7524;-62
2023/07/02 13:35:57;;;;;;;;;;;;;;;29.51;39.39;94034.66;5047804;28;6995;-61
2023/07/02 13:38:23;;;;;;;;;;;;;;;29.49;38.73;94034.44;5063833;28;10075;-62